Time;durP1;ratioP1;P1;durP2;ratioP2;P2;SDS_P1;SDS_P2;PMS_P1;PMS_P2;Temp;Humidity;BMP_temperature;BMP_pressure;BME280_temperature;BME280_humidity;BME280_pressure;Samples;Min_cycle;Max_cycle;Signal;HPM_P1;HPM_P2
2021/11/03 00:02:06;;;;;;;5.13;3.33;;;;;;;13.09;49.20;99766.56;4992090;28;20615;-76
2021/11/03 00:04:39;;;;;;;4.93;3.00;;;;;;;13.07;49.73;99765.84;4995020;28;20132;-75
2021/11/03 00:07:08;;;;;;;5.68;3.10;;;;;;;13.01;49.61;99763.72;4998084;28;20089;-75
2021/11/03 00:09:35;;;;;;;4.78;3.05;;;;;;;13.01;49.43;99760.13;5002415;28;20137;-76
2021/11/03 00:12:02;;;;;;;5.53;3.50;;;;;;;12.99;49.07;99757.53;4993304;28;20077;-76
2021/11/03 00:14:28;;;;;;;5.35;3.42;;;;;;;12.95;49.54;99748.78;4979584;28;20074;-76
2021/11/03 00:16:55;;;;;;;5.53;3.45;;;;;;;12.94;49.22;99751.63;4996038;28;20049;-76
2021/11/03 00:19:21;;;;;;;4.88;3.25;;;;;;;12.92;49.15;99750.94;4994648;28;20598;-75
2021/11/03 00:21:48;;;;;;;5.00;3.17;;;;;;;12.89;49.46;99745.78;4994651;28;20128;-75
2021/11/03 00:24:14;;;;;;;4.88;3.20;;;;;;;12.87;49.36;99745.06;5004508;28;20493;-76
2021/11/03 00:26:41;;;;;;;4.97;3.17;;;;;;;12.85;49.31;99747.06;4985004;28;20105;-75
2021/11/03 00:29:08;;;;;;;4.85;3.30;;;;;;;12.83;49.43;99744.50;4989552;28;20100;-76
2021/11/03 00:31:34;;;;;;;5.43;3.38;;;;;;;12.80;49.59;99750.22;4987064;28;20116;-75
2021/11/03 00:34:01;;;;;;;5.20;3.47;;;;;;;12.79;49.20;99750.34;4988316;28;20078;-76
2021/11/03 00:36:28;;;;;;;5.15;3.42;;;;;;;12.78;49.21;99748.63;4988522;28;20050;-75
2021/11/03 00:38:54;;;;;;;7.50;3.30;;;;;;;12.73;49.60;99735.47;4989987;28;20109;-76
2021/11/03 00:41:21;;;;;;;5.90;3.22;;;;;;;12.73;49.43;99735.47;4975713;28;20736;-76
2021/11/03 00:43:50;;;;;;;4.30;3.05;;;;;;;12.71;49.51;99722.97;4987474;28;20070;-75
2021/11/03 00:46:17;;;;;;;4.60;2.95;;;;;;;12.68;49.43;99732.31;4997551;28;20054;-76
2021/11/03 00:48:43;;;;;;;4.90;2.92;;;;;;;12.66;49.42;99723.44;4992985;28;20061;-76
2021/11/03 00:51:11;;;;;;;4.40;2.58;;;;;;;12.64;49.55;99725.44;4983088;28;20528;-76
2021/11/03 00:53:38;;;;;;;4.10;3.20;;;;;;;12.62;49.63;99719.25;4994604;28;20096;-76
2021/11/03 00:56:04;;;;;;;4.93;2.72;;;;;;;12.63;49.55;99725.56;5001294;28;20456;-76
2021/11/03 00:58:32;;;;;;;5.43;3.08;;;;;;;12.61;49.55;99720.25;5000297;28;20124;-76
2021/11/03 01:00:58;;;;;;;3.95;2.75;;;;;;;12.61;49.50;99722.13;4984150;28;20147;-76
2021/11/03 01:03:25;;;;;;;5.40;2.92;;;;;;;12.61;49.75;99719.38;4997074;28;20112;-76
2021/11/03 01:05:52;;;;;;;4.50;2.90;;;;;;;12.61;49.47;99722.13;5000214;28;20050;-76
2021/11/03 01:08:19;;;;;;;5.00;3.08;;;;;;;12.62;49.83;99729.28;4998975;28;20477;-76
2021/11/03 01:10:49;;;;;;;4.43;2.70;;;;;;;12.62;49.68;99726.56;4978589;28;20458;-76
2021/11/03 01:13:16;;;;;;;4.25;2.80;;;;;;;12.61;49.59;99730.28;5000141;28;20128;-76
2021/11/03 01:15:43;;;;;;;5.10;2.80;;;;;;;12.61;49.49;99733.00;4997454;28;20410;-75
2021/11/03 01:18:10;;;;;;;4.05;2.90;;;;;;;12.61;49.64;99733.00;5002411;28;20516;-76
2021/11/03 01:20:37;;;;;;;3.85;2.50;;;;;;;12.61;49.55;99733.00;4999197;28;20069;-75
2021/11/03 01:23:05;;;;;;;4.35;2.50;;;;;;;12.59;49.50;99727.72;5000994;28;20078;-76
2021/11/03 01:25:32;;;;;;;4.50;2.90;;;;;;;12.57;49.39;99737.91;4992743;28;20050;-75
2021/11/03 01:27:59;;;;;;;4.45;3.00;;;;;;;12.55;49.25;99724.41;4994419;28;20064;-76
2021/11/03 01:30:27;;;;;;;4.30;2.95;;;;;;;12.55;49.48;99729.00;4998471;28;20105;-76
2021/11/03 01:32:55;;;;;;;4.47;2.97;;;;;;;12.54;49.46;99735.44;5000885;28;20089;-76
2021/11/03 01:35:23;;;;;;;4.72;3.03;;;;;;;12.51;49.39;99723.00;4995835;28;20047;-75
2021/11/03 01:37:51;;;;;;;5.10;3.13;;;;;;;12.47;49.14;99723.41;4997538;28;20050;-76
2021/11/03 01:40:22;;;;;;;4.97;3.00;;;;;;;12.45;49.23;99718.09;4993224;28;20504;-75
2021/11/03 01:42:49;;;;;;;4.70;3.03;;;;;;;12.42;49.34;99715.69;5005052;28;20084;-75
2021/11/03 01:45:18;;;;;;;4.72;2.83;;;;;;;12.41;49.29;99722.13;5003687;28;20479;-75
2021/11/03 01:47:52;;;;;;;;;;;;;;;12.16;49.68;99711.78;5006467;28;20051;-76
2021/11/03 01:50:32;;;;;;;6.53;2.85;;;;;;;12.36;49.62;99715.38;4991404;28;19949;-76
2021/11/03 01:53:15;;;;;;;4.68;3.17;;;;;;;12.34;49.62;99701.91;4987619;28;20461;-76
2021/11/03 01:55:50;;;;;;;4.50;2.70;;;;;;;12.34;49.51;99709.22;5000769;28;20086;-75
2021/11/03 01:58:21;;;;;;;4.93;2.97;;;;;;;12.31;49.36;99702.19;4992289;28;20098;-75
2021/11/03 02:00:52;;;;;;;4.20;2.75;;;;;;;12.31;49.71;99693.16;4991835;28;20088;-75
2021/11/03 02:03:22;;;;;;;4.43;2.88;;;;;;;12.30;49.39;99684.13;4994571;28;20132;-75
2021/11/03 02:05:53;;;;;;;3.75;2.60;;;;;;;12.29;49.81;99685.13;4993826;28;20078;-75
2021/11/03 02:08:21;;;;;;;4.82;2.80;;;;;;;12.27;49.81;99681.69;4987028;28;20050;-76
2021/11/03 02:10:48;;;;;;;4.93;2.63;;;;;;;12.26;49.70;99677.28;4974343;28;20054;-75
2021/11/03 02:13:15;;;;;;;5.18;2.65;;;;;;;12.26;49.59;99669.13;5002113;28;20500;-75
2021/11/03 02:15:43;;;;;;;4.40;2.88;;;;;;;12.27;49.60;99664.53;5002352;28;20058;-76
2021/11/03 02:18:13;;;;;;;4.43;2.78;;;;;;;12.27;49.37;99659.09;5003035;28;20073;-76
2021/11/03 02:20:43;;;;;;;4.47;2.80;;;;;;;12.26;49.31;99660.09;4993063;28;20105;-76
2021/11/03 02:23:31;;;;;;;4.50;2.63;;;;;;;12.26;49.42;99655.50;4972787;28;20046;-76
2021/11/03 02:26:26;;;;;;;3.90;2.58;;;;;;;12.21;49.74;99652.34;4986355;28;20214;-75
2021/11/03 02:28:53;;;;;;;4.35;2.75;;;;;;;12.19;49.49;99644.31;4963149;28;20085;-76
2021/11/03 02:31:38;;;;;;;5.22;3.00;;;;;;;12.23;49.80;99655.78;4991270;28;20070;-75
2021/11/03 02:34:11;;;;;;;4.55;3.03;;;;;;;12.19;49.76;99644.31;5001016;28;20050;-75
2021/11/03 02:36:59;;;;;;;4.40;2.80;;;;;;;12.20;49.73;99642.44;4996386;28;20046;-75
2021/11/03 02:39:40;;;;;;;4.80;2.60;;;;;;;12.18;50.30;99645.34;4985343;28;20092;-75
2021/11/03 02:42:08;;;;;;;4.43;2.78;;;;;;;12.16;49.71;99647.34;4994016;28;20089;-75
2021/11/03 02:44:38;;;;;;;5.68;3.28;;;;;;;12.18;50.05;99645.34;4996340;28;20065;-75
2021/11/03 02:47:05;;;;;;;5.88;3.20;;;;;;;12.19;49.73;99648.88;4976148;28;20200;-75
2021/11/03 02:49:36;;;;;;;5.10;3.08;;;;;;;12.20;50.30;99646.03;4989664;28;20054;-77
2021/11/03 02:52:13;;;;;;;5.32;3.33;;;;;;;12.23;50.24;99647.63;4993089;28;20141;-77
2021/11/03 02:54:40;;;;;;;5.22;3.20;;;;;;;12.21;49.99;99646.88;4974493;28;20046;-77
2021/11/03 02:57:07;;;;;;;5.75;3.20;;;;;;;12.22;49.76;99648.63;5000784;28;20134;-78
2021/11/03 02:59:34;;;;;;;4.80;2.95;;;;;;;12.25;49.95;99642.91;4990360;28;20502;-78
2021/11/03 03:02:02;;;;;;;5.20;2.90;;;;;;;12.26;49.97;99644.63;5002407;28;20078;-77
2021/11/03 03:04:41;;;;;;;5.72;3.17;;;;;;;12.29;50.05;99640.72;4997647;28;20052;-77
2021/11/03 03:07:10;;;;;;;6.05;3.28;;;;;;;12.27;49.79;99640.03;4996099;28;20094;-78
2021/11/03 03:09:37;;;;;;;4.75;2.90;;;;;;;12.27;49.92;99640.03;4979914;28;20054;-75
2021/11/03 03:12:06;;;;;;;5.53;2.97;;;;;;;12.28;49.87;99639.88;4992893;28;20100;-76
2021/11/03 03:14:37;;;;;;;4.50;2.75;;;;;;;12.29;49.94;99636.16;4994110;28;20057;-75
2021/11/03 03:17:05;;;;;;;6.68;3.33;;;;;;;12.28;49.74;99645.31;4996912;28;20101;-76
2021/11/03 03:19:32;;;;;;;5.82;3.33;;;;;;;12.29;49.79;99648.91;5002026;28;20096;-76
2021/11/03 03:21:59;;;;;;;5.57;3.28;;;;;;;12.28;50.07;99650.75;4999326;28;20116;-75
2021/11/03 03:24:26;;;;;;;6.00;3.55;;;;;;;12.28;49.71;99661.66;4988275;28;20080;-76
2021/11/03 03:26:53;;;;;;;5.60;3.20;;;;;;;12.29;50.00;99662.50;4997140;28;20103;-75
2021/11/03 03:29:19;;;;;;;6.45;3.40;;;;;;;12.27;49.61;99659.91;4990055;28;20046;-76
2021/11/03 03:31:47;;;;;;;5.10;2.92;;;;;;;12.29;49.73;99673.38;4994312;28;20480;-75
2021/11/03 03:34:18;;;;;;;5.30;3.25;;;;;;;12.30;49.93;99678.69;4991784;28;20420;-76
2021/11/03 03:36:45;;;;;;;4.78;2.97;;;;;;;12.29;49.79;99674.25;4976192;28;20054;-76
2021/11/03 03:39:14;;;;;;;5.75;3.42;;;;;;;12.30;49.94;99675.97;4997076;28;20465;-76
2021/11/03 03:41:43;;;;;;;6.38;3.70;;;;;;;12.30;49.91;99670.53;4986201;28;20053;-75
2021/11/03 03:44:10;;;;;;;6.35;3.60;;;;;;;12.29;49.90;99673.38;5001251;28;20116;-75
2021/11/03 03:46:37;;;;;;;5.57;3.20;;;;;;;12.28;49.63;99675.25;4997893;28;20085;-76
2021/11/03 03:49:04;;;;;;;6.63;3.38;;;;;;;12.29;49.87;99676.97;4990146;28;20493;-76
2021/11/03 03:51:30;;;;;;;5.47;3.30;;;;;;;12.29;49.71;99676.97;4983633;28;20441;-76
2021/11/03 03:53:57;;;;;;;5.65;3.50;;;;;;;12.28;49.72;99677.97;5000594;28;20143;-76
2021/11/03 03:56:24;;;;;;;5.55;3.20;;;;;;;12.27;49.57;99681.69;4974994;28;20080;-75
2021/11/03 03:58:51;;;;;;;5.97;3.70;;;;;;;12.27;49.73;99681.69;4995299;28;20077;-75
2021/11/03 04:01:21;;;;;;;6.43;3.67;;;;;;;12.27;49.81;99681.69;4990848;28;20077;-76
2021/11/03 04:03:51;;;;;;;5.32;3.38;;;;;;;12.26;49.77;99680.00;4994389;28;20041;-75
2021/11/03 04:06:18;;;;;;;6.05;3.67;;;;;;;12.26;49.93;99681.84;4998034;28;20084;-76
2021/11/03 04:08:45;;;;;;;5.15;3.28;;;;;;;12.26;49.72;99684.59;4995070;28;20046;-76
2021/11/03 04:11:11;;;;;;;6.70;3.67;;;;;;;12.25;49.97;99681.00;4997452;28;20097;-76
2021/11/03 04:13:38;;;;;;;5.97;3.55;;;;;;;12.24;49.91;99687.44;4985950;28;20101;-76
2021/11/03 04:16:05;;;;;;;6.00;3.70;;;;;;;12.24;49.98;99692.00;4990131;28;20509;-75
2021/11/03 04:18:32;;;;;;;5.82;3.80;;;;;;;12.23;49.82;99693.00;4992789;28;20128;-76
2021/11/03 04:20:59;;;;;;;5.38;3.67;;;;;;;12.22;49.91;99703.03;4992366;28;20053;-76
2021/11/03 04:23:25;;;;;;;6.05;3.50;;;;;;;12.22;49.69;99710.34;4996640;28;20082;-75
2021/11/03 04:25:52;;;;;;;5.90;3.22;;;;;;;12.20;49.84;99703.16;5000418;28;20577;-75
2021/11/03 04:28:19;;;;;;;5.60;3.50;;;;;;;12.19;49.72;99706.88;5002332;28;20050;-76
2021/11/03 04:30:45;;;;;;;6.22;3.63;;;;;;;12.19;49.57;99703.31;4994437;28;20088;-75
2021/11/03 04:33:13;;;;;;;6.28;3.80;;;;;;;12.19;49.98;99706.03;4995895;28;20149;-76
2021/11/03 04:35:39;;;;;;;5.80;3.65;;;;;;;12.18;49.83;99707.91;5002480;28;20080;-76
2021/11/03 04:38:06;;;;;;;5.70;3.97;;;;;;;12.16;49.63;99707.19;4995648;28;20468;-75
2021/11/03 04:40:34;;;;;;;5.40;3.50;;;;;;;12.17;50.02;99710.78;4991509;28;20493;-75
2021/11/03 04:43:00;;;;;;;5.78;3.78;;;;;;;12.14;49.98;99714.63;4988705;28;20062;-76
2021/11/03 04:45:27;;;;;;;5.22;3.13;;;;;;;12.13;50.06;99712.03;4989833;28;20043;-75
2021/11/03 04:47:54;;;;;;;6.13;3.80;;;;;;;12.11;49.67;99701.28;4991638;28;20054;-75
2021/11/03 04:50:25;;;;;;;5.20;3.47;;;;;;;12.12;50.08;99697.56;4987659;28;20159;-76
2021/11/03 04:52:51;;;;;;;6.40;4.03;;;;;;;12.09;50.07;99700.59;4991078;28;20047;-76
2021/11/03 04:55:18;;;;;;;5.78;3.80;;;;;;;12.07;50.29;99699.88;4977013;28;20061;-75
2021/11/03 04:57:51;;;;;;;5.60;3.53;;;;;;;12.08;50.06;99692.56;4975539;28;20046;-76
2021/11/03 05:00:22;;;;;;;6.13;3.88;;;;;;;12.09;50.06;99694.28;4985238;28;20535;-75
2021/11/03 05:02:49;;;;;;;6.05;3.75;;;;;;;12.05;49.87;99690.97;4990511;28;20089;-76
2021/11/03 05:05:16;;;;;;;5.40;3.78;;;;;;;12.05;50.07;99681.97;5000371;28;20062;-75
2021/11/03 05:07:43;;;;;;;5.90;4.00;;;;;;;12.04;49.93;99683.81;4977140;28;20100;-75
2021/11/03 05:10:10;;;;;;;7.25;4.45;;;;;;;12.03;50.09;99681.22;4969993;28;20058;-76
2021/11/03 05:12:37;;;;;;;6.57;4.40;;;;;;;12.03;50.21;99678.50;5005098;28;20042;-75
2021/11/03 05:15:04;;;;;;;7.38;4.40;;;;;;;12.02;50.12;99669.53;4995684;28;20481;-75
2021/11/03 05:17:30;;;;;;;7.05;4.20;;;;;;;12.00;49.80;99671.50;4984959;28;20069;-75
2021/11/03 05:19:57;;;;;;;7.22;4.13;;;;;;;11.99;50.20;99671.66;4976136;28;20058;-75
2021/11/03 05:22:26;;;;;;;7.40;4.45;;;;;;;11.99;50.54;99671.66;4990274;28;20160;-75
2021/11/03 05:24:57;;;;;;;6.70;4.40;;;;;;;11.97;50.38;99673.63;4993547;28;20070;-75
2021/11/03 05:27:24;;;;;;;7.00;4.50;;;;;;;11.98;50.38;99675.38;4991065;28;20644;-75
2021/11/03 05:29:51;;;;;;;6.82;3.80;;;;;;;11.99;50.49;99677.94;4992385;28;20057;-75
2021/11/03 05:32:18;;;;;;;6.55;3.95;;;;;;;11.99;50.35;99675.22;4995616;28;20050;-75
2021/11/03 05:34:45;;;;;;;6.25;3.95;;;;;;;12.00;50.29;99676.09;4991798;28;20680;-76
2021/11/03 05:37:17;;;;;;;5.45;3.85;;;;;;;12.04;50.68;99666.63;4984540;28;20142;-75
2021/11/03 05:39:48;;;;;;;6.55;4.32;;;;;;;12.01;50.38;99667.78;4985974;28;20061;-75
2021/11/03 05:42:14;;;;;;;7.07;4.60;;;;;;;12.04;50.59;99666.63;5001144;28;20046;-75
2021/11/03 05:44:41;;;;;;;7.00;4.00;;;;;;;12.05;50.58;99669.22;5002406;28;20261;-75
2021/11/03 05:47:24;;;;;;;7.05;4.15;;;;;;;12.09;50.76;99672.53;4982999;28;20081;-75
2021/11/03 05:49:51;;;;;;;6.88;4.45;;;;;;;12.05;50.51;99680.09;4994636;28;20050;-74
2021/11/03 05:52:19;;;;;;;6.90;4.20;;;;;;;12.09;50.57;99683.41;4989947;28;20133;-75
2021/11/03 05:54:46;;;;;;;7.35;4.30;;;;;;;12.10;50.57;99669.66;4992276;28;20113;-75
2021/11/03 05:57:39;;;;;;;7.05;4.57;;;;;;;12.10;51.11;99672.41;4992694;28;20053;-74
2021/11/03 06:00:20;;;;;;;7.50;4.40;;;;;;;12.13;50.85;99671.22;4986455;28;20387;-74
2021/11/03 06:02:47;;;;;;;6.93;4.15;;;;;;;12.12;50.66;99672.22;4992647;28;20097;-74
2021/11/03 06:05:14;;;;;;;7.22;3.80;;;;;;;12.15;50.37;99661.06;4996160;28;20271;-75
2021/11/03 06:07:48;;;;;;;6.45;4.38;;;;;;;12.17;50.23;99662.66;5004803;28;20042;-75
2021/11/03 06:10:17;;;;;;;7.10;4.65;;;;;;;12.16;50.28;99665.50;4997349;28;20052;-74
2021/11/03 06:12:44;;;;;;;6.72;4.20;;;;;;;12.14;50.25;99665.66;4997198;28;20782;-75
2021/11/03 06:15:11;;;;;;;7.07;4.05;;;;;;;12.13;50.25;99655.75;4997421;28;20094;-75
2021/11/03 06:17:37;;;;;;;6.32;4.07;;;;;;;12.13;50.27;99653.03;4997909;28;20490;-75
2021/11/03 06:20:05;;;;;;;7.65;4.55;;;;;;;12.13;50.22;99646.75;4972038;28;20108;-75
2021/11/03 06:22:31;;;;;;;7.38;4.43;;;;;;;12.10;50.12;99647.91;4989222;28;20117;-76
2021/11/03 06:25:00;;;;;;;7.57;4.88;;;;;;;12.11;50.26;99644.16;5009035;28;20076;-75
2021/11/03 06:27:27;;;;;;;6.95;4.20;;;;;;;12.09;50.16;99645.31;4989195;28;20527;-74
2021/11/03 06:29:53;;;;;;;6.20;3.72;;;;;;;12.09;50.45;99648.03;4994989;28;20058;-75
2021/11/03 06:32:20;;;;;;;7.13;4.18;;;;;;;12.08;50.42;99646.31;5000768;28;20074;-75
2021/11/03 06:34:46;;;;;;;6.25;4.00;;;;;;;12.09;50.21;99642.59;4991771;28;20058;-75
2021/11/03 06:37:13;;;;;;;7.97;4.25;;;;;;;12.07;50.58;99640.03;4996736;28;20105;-75
2021/11/03 06:39:40;;;;;;;6.85;4.45;;;;;;;12.08;50.35;99646.31;4992849;28;20452;-75
2021/11/03 06:42:07;;;;;;;7.35;4.50;;;;;;;12.07;50.46;99644.59;5003596;28;20074;-75
2021/11/03 06:44:33;;;;;;;7.93;4.22;;;;;;;12.08;50.50;99646.31;4995774;28;20065;-75
2021/11/03 06:47:00;;;;;;;8.15;4.72;;;;;;;12.08;50.74;99647.19;4975203;28;20054;-74
2021/11/03 06:49:27;;;;;;;7.57;4.43;;;;;;;12.08;50.67;99649.03;4987857;28;20142;-75
2021/11/03 06:51:54;;;;;;;7.22;4.43;;;;;;;12.09;50.48;99643.47;4988878;28;20137;-75
2021/11/03 06:54:22;;;;;;;6.78;4.40;;;;;;;12.10;50.71;99647.03;4976739;28;20549;-75
2021/11/03 06:56:50;;;;;;;7.47;4.63;;;;;;;12.11;50.86;99649.59;4999996;28;20492;-75
2021/11/03 06:59:18;;;;;;;8.50;4.88;;;;;;;12.12;51.00;99651.31;4992040;28;20500;-73
2021/11/03 07:01:50;;;;;;;7.85;4.55;;;;;;;12.12;50.69;99643.16;4999695;28;20073;-72
2021/11/03 07:04:18;;;;;;;7.55;4.78;;;;;;;12.15;50.89;99628.41;4993793;28;20050;-73
2021/11/03 07:06:44;;;;;;;7.00;4.20;;;;;;;12.15;50.89;99625.69;4986721;28;20065;-72
2021/11/03 07:09:11;;;;;;;6.68;4.32;;;;;;;12.15;50.93;99640.16;4990118;28;20497;-76
2021/11/03 07:11:38;;;;;;;5.63;3.72;;;;;;;12.17;51.06;99646.34;4973699;28;20050;-76
2021/11/03 07:14:06;;;;;;;6.50;4.03;;;;;;;12.17;51.20;99643.63;4992597;28;20056;-75
2021/11/03 07:16:33;;;;;;;7.55;4.53;;;;;;;12.20;51.04;99650.59;4983468;28;20058;-76
2021/11/03 07:19:01;;;;;;;6.57;4.03;;;;;;;12.22;51.04;99636.88;4980740;28;20060;-76
2021/11/03 07:21:28;;;;;;;6.82;4.07;;;;;;;12.22;50.69;99640.44;4989332;28;20074;-75
2021/11/03 07:23:55;;;;;;;8.05;4.13;;;;;;;12.23;50.92;99634.00;4993484;28;20058;-78
2021/11/03 07:26:22;;;;;;;6.63;3.95;;;;;;;12.25;50.94;99629.28;4988616;28;20137;-76
2021/11/03 07:28:48;;;;;;;6.38;4.18;;;;;;;12.28;50.95;99636.28;4979688;28;20069;-76
2021/11/03 07:31:16;;;;;;;8.45;4.82;;;;;;;12.29;51.11;99641.59;4991072;28;20081;-79
2021/11/03 07:33:43;;;;;;;7.20;4.70;;;;;;;12.30;51.15;99639.72;4972323;28;20046;-76
2021/11/03 07:36:13;;;;;;;7.05;4.30;;;;;;;12.34;51.04;99638.47;4992312;28;20109;-75
2021/11/03 07:38:40;;;;;;;8.82;4.60;;;;;;;12.33;51.05;99634.03;4991053;28;20101;-75
2021/11/03 07:41:27;;;;;;;8.85;5.00;;;;;;;12.34;51.01;99639.31;4986077;28;20046;-76
2021/11/03 07:43:57;;;;;;;7.47;4.15;;;;;;;12.35;50.57;99641.03;4999531;28;20058;-75
2021/11/03 07:46:24;;;;;;;7.93;4.38;;;;;;;12.36;50.72;99636.44;4988198;28;20050;-76
2021/11/03 07:48:50;;;;;;;8.20;4.40;;;;;;;12.35;50.65;99638.31;4999048;28;20140;-75
2021/11/03 07:51:19;;;;;;;7.80;4.30;;;;;;;12.37;50.49;99635.44;4997309;28;20112;-75
2021/11/03 07:53:45;;;;;;;6.70;4.25;;;;;;;12.34;50.59;99631.16;4995757;28;20058;-74
2021/11/03 07:56:20;;;;;;;7.93;4.20;;;;;;;12.36;50.57;99639.16;5003409;28;20084;-76
2021/11/03 07:58:53;;;;;;;6.50;4.20;;;;;;;12.33;50.75;99640.31;4989856;28;20128;-75
2021/11/03 08:01:20;;;;;;;7.10;4.25;;;;;;;12.31;50.77;99647.75;4978715;28;20054;-76
2021/11/03 08:03:50;;;;;;;6.65;4.40;;;;;;;12.37;50.60;99651.75;4994599;28;20412;-76
2021/11/03 08:06:18;;;;;;;5.82;3.80;;;;;;;12.35;50.97;99654.66;4990459;28;20057;-75
2021/11/03 08:09:02;;;;;;;7.43;4.30;;;;;;;12.37;51.09;99654.47;4988309;28;20949;-76
2021/11/03 08:11:34;;;;;;;7.18;4.20;;;;;;;12.37;51.07;99660.78;4995711;28;20112;-75
2021/11/03 08:14:03;;;;;;;6.53;3.80;;;;;;;12.38;50.96;99667.97;4990423;28;20053;-75
2021/11/03 08:16:49;;;;;;;6.95;4.40;;;;;;;12.43;51.08;99665.69;4978175;28;20053;-75
2021/11/03 08:19:16;;;;;;;7.47;4.07;;;;;;;12.41;50.91;99664.97;4978124;28;20056;-75
2021/11/03 08:21:42;;;;;;;6.65;3.55;;;;;;;12.42;51.13;99668.53;4991081;28;20497;-75
2021/11/03 08:24:09;;;;;;;7.95;4.45;;;;;;;12.43;51.27;99668.41;4992148;28;20050;-75
2021/11/03 08:26:36;;;;;;;6.75;4.13;;;;;;;12.44;51.06;99678.25;4984415;28;20073;-75
2021/11/03 08:29:03;;;;;;;7.75;4.57;;;;;;;12.44;51.02;99671.97;4989091;28;20058;-75
2021/11/03 08:31:30;;;;;;;6.90;4.25;;;;;;;12.43;50.75;99671.13;4984064;28;20489;-75
2021/11/03 08:33:57;;;;;;;6.78;4.22;;;;;;;12.45;51.18;99670.97;4978013;28;20112;-75
2021/11/03 08:36:24;;;;;;;8.73;4.05;;;;;;;12.43;50.97;99676.56;4995648;28;20073;-75
2021/11/03 08:38:54;;;;;;;6.32;3.95;;;;;;;12.46;51.02;99670.81;4989824;28;20494;-76
2021/11/03 08:41:21;;;;;;;7.85;4.50;;;;;;;12.45;51.05;99668.25;4987759;28;20062;-76
2021/11/03 08:43:49;;;;;;;6.93;4.00;;;;;;;12.45;51.00;99669.09;4987334;28;20084;-76
2021/11/03 08:46:17;;;;;;;6.78;4.10;;;;;;;12.48;51.09;99678.84;4997819;28;20070;-76
2021/11/03 08:48:49;;;;;;;5.68;3.75;;;;;;;12.47;51.10;99671.69;4994081;28;20075;-76
2021/11/03 08:51:16;;;;;;;7.72;4.53;;;;;;;12.49;51.04;99675.13;4988857;28;20042;-76
2021/11/03 08:53:42;;;;;;;7.03;4.25;;;;;;;12.48;50.86;99668.81;4998367;28;20440;-76
2021/11/03 08:56:09;;;;;;;6.30;3.95;;;;;;;12.49;51.28;99676.00;4989256;28;20081;-76
2021/11/03 08:58:35;;;;;;;5.93;3.50;;;;;;;12.51;50.86;99667.69;4991095;28;20053;-76
2021/11/03 09:01:02;;;;;;;9.30;5.00;;;;;;;12.51;51.01;99667.69;4985594;28;20054;-79
2021/11/03 09:03:30;;;;;;;7.90;4.50;;;;;;;12.51;50.98;99665.81;5002657;28;20050;-75
2021/11/03 09:06:01;;;;;;;7.28;4.63;;;;;;;12.51;50.77;99664.97;4992091;28;20098;-76
2021/11/03 09:08:28;;;;;;;8.98;5.15;;;;;;;12.53;50.98;99657.50;4990204;28;20054;-76
2021/11/03 09:11:00;;;;;;;9.82;5.43;;;;;;;12.53;51.18;99658.34;4989854;28;20054;-75
2021/11/03 09:13:29;;;;;;;7.40;4.70;;;;;;;12.55;50.81;99663.66;5001511;28;20054;-76
2021/11/03 09:15:57;;;;;;;8.15;4.55;;;;;;;12.54;50.83;99664.66;4973328;28;20149;-74
2021/11/03 09:18:24;;;;;;;6.75;4.40;;;;;;;12.53;50.97;99661.06;4988391;28;20386;-75
2021/11/03 09:20:52;;;;;;;7.68;4.28;;;;;;;12.55;51.08;99660.94;4979069;28;20117;-75
2021/11/03 09:23:20;;;;;;;8.48;5.03;;;;;;;12.55;50.88;99664.50;4992607;28;20061;-75
2021/11/03 09:25:48;;;;;;;6.88;3.97;;;;;;;12.56;51.29;99660.78;4981666;28;20413;-75
2021/11/03 09:28:14;;;;;;;7.75;4.25;;;;;;;12.57;50.99;99662.53;5005561;28;20493;-75
2021/11/03 09:30:41;;;;;;;6.97;4.50;;;;;;;12.60;51.37;99657.78;5004741;28;20566;-75
2021/11/03 09:33:10;;;;;;;7.43;4.65;;;;;;;12.63;51.09;99661.06;4970341;28;20050;-75
2021/11/03 09:35:48;;;;;;;9.68;5.13;;;;;;;12.65;51.55;99659.06;5007560;28;20047;-75
2021/11/03 09:38:18;;;;;;;8.48;4.38;;;;;;;12.67;51.42;99650.75;4998064;28;20105;-76
2021/11/03 09:41:01;;;;;;;9.73;4.25;;;;;;;12.70;51.43;99655.91;4986936;28;20070;-75
2021/11/03 09:43:33;;;;;;;7.40;3.90;;;;;;;12.70;51.51;99659.47;4998064;28;20050;-75
2021/11/03 09:46:22;;;;;;;6.53;3.95;;;;;;;12.72;51.73;99662.94;4997607;28;20485;-75
2021/11/03 09:48:58;;;;;;;7.40;4.28;;;;;;;12.76;51.25;99653.47;4993227;28;20390;-75
2021/11/03 09:51:28;;;;;;;8.57;3.97;;;;;;;12.78;51.52;99648.72;4998595;28;20082;-75
2021/11/03 09:54:01;;;;;;;6.78;4.13;;;;;;;12.82;51.67;99652.03;4975512;28;20148;-75
2021/11/03 09:56:44;;;;;;;7.93;3.80;;;;;;;12.86;51.44;99653.44;5006990;28;20070;-75
2021/11/03 09:59:39;;;;;;;8.10;4.57;;;;;;;12.86;51.75;99648.84;4992373;28;20556;-75
2021/11/03 10:02:47;;;;;;;7.35;4.63;;;;;;;12.84;51.65;99648.16;5000087;28;20097;-75
2021/11/03 10:05:24;;;;;;;7.03;4.32;;;;;;;12.87;51.36;99653.28;5011394;28;20062;-75
2021/11/03 10:07:59;;;;;;;7.10;4.05;;;;;;;12.92;51.29;99661.03;4968898;28;20054;-75
2021/11/03 10:10:41;;;;;;;7.13;4.32;;;;;;;12.95;51.32;99650.69;4978707;28;20285;-75
2021/11/03 10:13:21;;;;;;;7.40;4.32;;;;;;;12.99;51.73;99654.00;4962647;28;20390;-75
2021/11/03 10:15:58;;;;;;;7.07;3.70;;;;;;;13.01;51.78;99654.72;5008361;28;20088;-75
2021/11/03 10:18:29;;;;;;;6.32;3.78;;;;;;;13.03;51.57;99649.09;5007864;28;20264;-74
2021/11/03 10:21:20;;;;;;;6.75;4.13;;;;;;;13.04;51.62;99646.22;4977910;28;20137;-75
2021/11/03 10:23:57;;;;;;;6.63;4.03;;;;;;;13.08;51.22;99646.81;4975166;28;20607;-74
2021/11/03 10:26:26;;;;;;;6.10;3.63;;;;;;;13.09;51.32;99641.22;5001227;28;20054;-75
2021/11/03 10:29:19;;;;;;;6.60;4.15;;;;;;;13.09;51.46;99641.22;4991832;28;20525;-75
2021/11/03 10:32:09;;;;;;;6.97;4.10;;;;;;;13.11;51.53;99641.91;4976576;28;20061;-75
2021/11/03 10:34:35;;;;;;;6.20;3.65;;;;;;;13.15;51.57;99639.78;4988828;28;20115;-75
2021/11/03 10:37:17;;;;;;;7.10;4.05;;;;;;;13.20;51.41;99645.63;5010385;28;20054;-75
2021/11/03 10:39:48;;;;;;;7.70;4.15;;;;;;;13.20;51.44;99651.09;4990541;28;20085;-75
2021/11/03 10:42:19;;;;;;;6.45;3.90;;;;;;;13.22;51.20;99643.63;4979646;28;20100;-75
2021/11/03 10:44:45;;;;;;;7.45;3.75;;;;;;;13.21;51.33;99644.63;5006075;28;20062;-75
2021/11/03 10:47:19;;;;;;;7.72;4.00;;;;;;;13.24;51.22;99645.22;4995326;28;20054;-75
2021/11/03 10:50:23;;;;;;;6.80;3.85;;;;;;;13.25;51.39;99651.53;4973790;28;20058;-75
2021/11/03 10:52:59;;;;;;;6.75;3.80;;;;;;;13.27;51.18;99630.41;4977402;28;20093;-75
2021/11/03 10:55:48;;;;;;;6.18;3.80;;;;;;;13.27;51.20;99633.13;4984994;28;20086;-74
2021/11/03 10:58:28;;;;;;;6.20;3.83;;;;;;;13.31;51.38;99649.06;4994063;28;20078;-75
2021/11/03 11:01:04;;;;;;;5.50;3.78;;;;;;;13.30;51.38;99646.47;5009033;28;20092;-75
2021/11/03 11:03:54;;;;;;;7.25;3.83;;;;;;;13.33;51.41;99636.13;4993367;28;20050;-75
2021/11/03 11:06:28;;;;;;;8.45;3.90;;;;;;;13.36;51.49;99631.38;4965777;28;20099;-75
2021/11/03 11:09:36;;;;;;;7.00;4.32;;;;;;;13.37;51.39;99638.53;4979481;28;20082;-75
2021/11/03 11:12:22;;;;;;;6.25;3.85;;;;;;;13.37;51.62;99633.94;4996274;28;20062;-75
2021/11/03 11:15:14;;;;;;;7.53;3.80;;;;;;;13.39;51.34;99633.81;4977211;28;20493;-74
2021/11/03 11:18:11;;;;;;;6.10;3.77;;;;;;;13.36;51.37;99637.69;4985160;28;20119;-75
2021/11/03 11:20:46;;;;;;;6.57;4.05;;;;;;;13.40;51.34;99630.94;4938613;28;20579;-75
2021/11/03 11:23:19;;;;;;;6.95;4.15;;;;;;;13.41;51.17;99626.34;4994148;28;20100;-76
2021/11/03 11:26:16;;;;;;;7.35;4.15;;;;;;;13.42;51.57;99633.53;4990362;28;20053;-75
2021/11/03 11:29:09;;;;;;;6.90;3.92;;;;;;;13.43;51.29;99636.06;4980246;28;20490;-75
2021/11/03 11:32:13;;;;;;;9.52;4.10;;;;;;;13.42;51.33;99634.38;4980466;28;20054;-75
2021/11/03 11:35:31;;;;;;;7.13;4.30;;;;;;;13.35;51.81;99635.97;4993853;28;20488;-75
2021/11/03 11:38:25;;;;;;;6.85;3.90;;;;;;;13.40;51.53;99630.06;4916939;29;20067;-75
2021/11/03 11:41:10;;;;;;;7.35;4.60;;;;;;;13.40;51.78;99632.81;4997956;28;20100;-75
2021/11/03 11:43:49;;;;;;;8.10;4.50;;;;;;;13.40;51.58;99635.53;4992989;28;20105;-75
2021/11/03 11:46:26;;;;;;;7.10;3.90;;;;;;;13.39;51.67;99637.41;4984523;28;20061;-75
2021/11/03 11:49:19;;;;;;;6.45;3.92;;;;;;;13.37;51.63;99635.81;4985194;28;20065;-74
2021/11/03 11:51:54;;;;;;;6.63;4.03;;;;;;;13.37;51.53;99644.00;4989936;28;20101;-75
2021/11/03 11:54:27;;;;;;;6.78;4.68;;;;;;;13.36;51.61;99631.38;4999479;28;20085;-74